sensor_id;sensor_type;location;lat;lon;timestamp;P1;durP1;ratioP1;P2;durP2;ratioP2
38715;SDS011;24833;49.324;8.694;2024-01-10T00:00:42;3.08;;;1.75;;
38715;SDS011;24833;49.324;8.694;2024-01-10T00:03:09;3.38;;;2.30;;
38715;SDS011;24833;49.324;8.694;2024-01-10T00:05:36;3.40;;;1.92;;
38715;SDS011;24833;49.324;8.694;2024-01-10T00:08:03;2.65;;;1.73;;
38715;SDS011;24833;49.324;8.694;2024-01-10T00:10:32;3.03;;;2.00;;
38715;SDS011;24833;49.324;8.694;2024-01-10T00:12:59;3.70;;;2.13;;
38715;SDS011;24833;49.324;8.694;2024-01-10T00:15:26;4.03;;;2.28;;
38715;SDS011;24833;49.324;8.694;2024-01-10T00:17:53;3.10;;;2.05;;
38715;SDS011;24833;49.324;8.694;2024-01-10T00:20:21;3.92;;;2.63;;
38715;SDS011;24833;49.324;8.694;2024-01-10T00:22:48;4.72;;;2.83;;
38715;SDS011;24833;49.324;8.694;2024-01-10T00:25:15;3.95;;;2.40;;
38715;SDS011;24833;49.324;8.694;2024-01-10T00:27:42;4.63;;;2.75;;
38715;SDS011;24833;49.324;8.694;2024-01-10T00:30:09;3.88;;;2.42;;
38715;SDS011;24833;49.324;8.694;2024-01-10T00:32:36;4.15;;;2.53;;
38715;SDS011;24833;49.324;8.694;2024-01-10T00:35:03;3.28;;;2.33;;
38715;SDS011;24833;49.324;8.694;2024-01-10T00:37:31;4.40;;;2.47;;
38715;SDS011;24833;49.324;8.694;2024-01-10T00:39:58;4.80;;;2.63;;
38715;SDS011;24833;49.324;8.694;2024-01-10T00:42:25;3.17;;;2.17;;
38715;SDS011;24833;49.324;8.694;2024-01-10T00:44:52;3.03;;;2.15;;
38715;SDS011;24833;49.324;8.694;2024-01-10T00:47:19;4.82;;;2.20;;
38715;SDS011;24833;49.324;8.694;2024-01-10T00:49:46;3.90;;;2.50;;
38715;SDS011;24833;49.324;8.694;2024-01-10T00:52:13;4.40;;;2.40;;
38715;SDS011;24833;49.324;8.694;2024-01-10T00:54:40;5.22;;;2.72;;
38715;SDS011;24833;49.324;8.694;2024-01-10T00:57:07;3.40;;;2.55;;
38715;SDS011;24833;49.324;8.694;2024-01-10T00:59:34;4.50;;;2.45;;
38715;SDS011;24833;49.324;8.694;2024-01-10T01:02:01;3.40;;;2.35;;
38715;SDS011;24833;49.324;8.694;2024-01-10T01:04:28;4.82;;;2.28;;
38715;SDS011;24833;49.324;8.694;2024-01-10T01:06:55;3.70;;;2.20;;
38715;SDS011;24833;49.324;8.694;2024-01-10T01:09:23;3.08;;;2.20;;
38715;SDS011;24833;49.324;8.694;2024-01-10T01:11:51;2.92;;;2.05;;
38715;SDS011;24833;49.324;8.694;2024-01-10T01:14:18;4.00;;;2.20;;
38715;SDS011;24833;49.324;8.694;2024-01-10T01:16:45;4.03;;;2.17;;
38715;SDS011;24833;49.324;8.694;2024-01-10T01:19:12;4.53;;;2.20;;
38715;SDS011;24833;49.324;8.694;2024-01-10T01:21:39;4.13;;;2.38;;
38715;SDS011;24833;49.324;8.694;2024-01-10T01:24:06;3.50;;;2.45;;
38715;SDS011;24833;49.324;8.694;2024-01-10T01:26:33;4.22;;;2.45;;
38715;SDS011;24833;49.324;8.694;2024-01-10T01:29:00;4.45;;;2.80;;
38715;SDS011;24833;49.324;8.694;2024-01-10T01:31:28;5.25;;;2.58;;
38715;SDS011;24833;49.324;8.694;2024-01-10T01:33:55;4.85;;;3.00;;
38715;SDS011;24833;49.324;8.694;2024-01-10T01:36:22;5.32;;;2.70;;
38715;SDS011;24833;49.324;8.694;2024-01-10T01:38:49;5.15;;;3.13;;
38715;SDS011;24833;49.324;8.694;2024-01-10T01:41:17;6.55;;;2.95;;
38715;SDS011;24833;49.324;8.694;2024-01-10T01:43:44;3.25;;;2.53;;
38715;SDS011;24833;49.324;8.694;2024-01-10T01:46:12;5.07;;;2.95;;
38715;SDS011;24833;49.324;8.694;2024-01-10T01:48:39;4.75;;;2.92;;
38715;SDS011;24833;49.324;8.694;2024-01-10T01:51:07;5.38;;;3.05;;
38715;SDS011;24833;49.324;8.694;2024-01-10T01:53:35;4.93;;;2.83;;
38715;SDS011;24833;49.324;8.694;2024-01-10T01:56:06;4.25;;;2.80;;
38715;SDS011;24833;49.324;8.694;2024-01-10T01:58:35;4.90;;;2.92;;
38715;SDS011;24833;49.324;8.694;2024-01-10T02:01:03;5.40;;;3.08;;
38715;SDS011;24833;49.324;8.694;2024-01-10T02:03:34;5.70;;;3.27;;
38715;SDS011;24833;49.324;8.694;2024-01-10T02:06:01;4.32;;;2.67;;
38715;SDS011;24833;49.324;8.694;2024-01-10T02:08:31;4.03;;;2.80;;
38715;SDS011;24833;49.324;8.694;2024-01-10T02:11:00;3.75;;;2.33;;
38715;SDS011;24833;49.324;8.694;2024-01-10T02:13:28;3.75;;;2.75;;
38715;SDS011;24833;49.324;8.694;2024-01-10T02:15:56;6.40;;;3.45;;
38715;SDS011;24833;49.324;8.694;2024-01-10T02:18:23;6.20;;;3.00;;
38715;SDS011;24833;49.324;8.694;2024-01-10T02:20:50;4.97;;;2.90;;
38715;SDS011;24833;49.324;8.694;2024-01-10T02:23:18;5.03;;;2.83;;
38715;SDS011;24833;49.324;8.694;2024-01-10T02:25:45;7.07;;;3.35;;
38715;SDS011;24833;49.324;8.694;2024-01-10T02:28:12;4.60;;;3.00;;
38715;SDS011;24833;49.324;8.694;2024-01-10T02:30:39;4.68;;;2.72;;
38715;SDS011;24833;49.324;8.694;2024-01-10T02:33:06;4.15;;;2.40;;
38715;SDS011;24833;49.324;8.694;2024-01-10T02:35:34;6.40;;;3.03;;
38715;SDS011;24833;49.324;8.694;2024-01-10T02:38:01;5.47;;;2.63;;
38715;SDS011;24833;49.324;8.694;2024-01-10T02:40:29;4.85;;;2.58;;
38715;SDS011;24833;49.324;8.694;2024-01-10T02:42:56;5.63;;;2.97;;
38715;SDS011;24833;49.324;8.694;2024-01-10T02:45:25;4.70;;;2.20;;
38715;SDS011;24833;49.324;8.694;2024-01-10T02:47:52;7.13;;;3.30;;
38715;SDS011;24833;49.324;8.694;2024-01-10T02:50:19;3.60;;;2.53;;
38715;SDS011;24833;49.324;8.694;2024-01-10T02:52:46;4.75;;;2.72;;
38715;SDS011;24833;49.324;8.694;2024-01-10T02:55:13;6.47;;;2.95;;
38715;SDS011;24833;49.324;8.694;2024-01-10T02:57:40;4.93;;;2.92;;
38715;SDS011;24833;49.324;8.694;2024-01-10T03:00:07;4.43;;;2.53;;
38715;SDS011;24833;49.324;8.694;2024-01-10T03:02:35;3.88;;;2.60;;
38715;SDS011;24833;49.324;8.694;2024-01-10T03:05:02;6.75;;;3.20;;
38715;SDS011;24833;49.324;8.694;2024-01-10T03:07:29;6.05;;;3.22;;
38715;SDS011;24833;49.324;8.694;2024-01-10T03:09:56;4.55;;;2.58;;
38715;SDS011;24833;49.324;8.694;2024-01-10T03:12:24;5.20;;;2.58;;
38715;SDS011;24833;49.324;8.694;2024-01-10T03:14:50;5.82;;;3.17;;
38715;SDS011;24833;49.324;8.694;2024-01-10T03:17:17;4.97;;;2.75;;
38715;SDS011;24833;49.324;8.694;2024-01-10T03:19:45;4.95;;;3.20;;
38715;SDS011;24833;49.324;8.694;2024-01-10T03:22:12;5.05;;;2.90;;
38715;SDS011;24833;49.324;8.694;2024-01-10T03:24:39;6.00;;;3.20;;
38715;SDS011;24833;49.324;8.694;2024-01-10T03:27:06;5.72;;;2.67;;
38715;SDS011;24833;49.324;8.694;2024-01-10T03:29:34;4.90;;;3.05;;
38715;SDS011;24833;49.324;8.694;2024-01-10T03:32:01;4.80;;;2.90;;
38715;SDS011;24833;49.324;8.694;2024-01-10T03:34:28;5.43;;;2.78;;
38715;SDS011;24833;49.324;8.694;2024-01-10T03:36:55;4.97;;;3.47;;
38715;SDS011;24833;49.324;8.694;2024-01-10T03:39:22;5.22;;;3.20;;
38715;SDS011;24833;49.324;8.694;2024-01-10T03:41:49;5.00;;;3.25;;
38715;SDS011;24833;49.324;8.694;2024-01-10T03:44:16;5.15;;;3.13;;
38715;SDS011;24833;49.324;8.694;2024-01-10T03:46:43;5.03;;;3.00;;
38715;SDS011;24833;49.324;8.694;2024-01-10T03:49:11;5.45;;;3.13;;
38715;SDS011;24833;49.324;8.694;2024-01-10T03:51:38;5.57;;;3.20;;
38715;SDS011;24833;49.324;8.694;2024-01-10T03:54:06;7.18;;;3.72;;
38715;SDS011;24833;49.324;8.694;2024-01-10T03:56:33;5.82;;;3.60;;
38715;SDS011;24833;49.324;8.694;2024-01-10T03:59:01;6.85;;;3.70;;
38715;SDS011;24833;49.324;8.694;2024-01-10T04:01:28;5.00;;;3.22;;
38715;SDS011;24833;49.324;8.694;2024-01-10T04:03:55;6.15;;;3.63;;
38715;SDS011;24833;49.324;8.694;2024-01-10T04:06:22;4.57;;;2.97;;
38715;SDS011;24833;49.324;8.694;2024-01-10T04:08:50;6.57;;;3.67;;
38715;SDS011;24833;49.324;8.694;2024-01-10T04:11:17;5.70;;;3.58;;
38715;SDS011;24833;49.324;8.694;2024-01-10T04:13:44;5.43;;;3.35;;
38715;SDS011;24833;49.324;8.694;2024-01-10T04:16:11;6.53;;;3.75;;
38715;SDS011;24833;49.324;8.694;2024-01-10T04:18:39;5.65;;;3.33;;
38715;SDS011;24833;49.324;8.694;2024-01-10T04:21:07;5.22;;;3.22;;
38715;SDS011;24833;49.324;8.694;2024-01-10T04:23:35;6.35;;;3.65;;
38715;SDS011;24833;49.324;8.694;2024-01-10T04:26:02;7.72;;;3.75;;
38715;SDS011;24833;49.324;8.694;2024-01-10T04:28:29;8.50;;;3.78;;
38715;SDS011;24833;49.324;8.694;2024-01-10T04:30:56;4.55;;;3.08;;
38715;SDS011;24833;49.324;8.694;2024-01-10T04:33:26;6.28;;;3.60;;
38715;SDS011;24833;49.324;8.694;2024-01-10T04:35:53;7.53;;;3.70;;
38715;SDS011;24833;49.324;8.694;2024-01-10T04:38:20;5.65;;;3.67;;
38715;SDS011;24833;49.324;8.694;2024-01-10T04:40:47;7.68;;;4.00;;
38715;SDS011;24833;49.324;8.694;2024-01-10T04:43:14;5.95;;;3.63;;
38715;SDS011;24833;49.324;8.694;2024-01-10T04:45:41;6.72;;;3.70;;
38715;SDS011;24833;49.324;8.694;2024-01-10T04:48:08;6.20;;;3.55;;
38715;SDS011;24833;49.324;8.694;2024-01-10T04:50:35;5.78;;;3.85;;
38715;SDS011;24833;49.324;8.694;2024-01-10T04:53:02;6.75;;;3.97;;
38715;SDS011;24833;49.324;8.694;2024-01-10T04:55:30;5.93;;;3.60;;
38715;SDS011;24833;49.324;8.694;2024-01-10T04:57:58;6.13;;;3.70;;
38715;SDS011;24833;49.324;8.694;2024-01-10T05:00:27;7.57;;;3.75;;
38715;SDS011;24833;49.324;8.694;2024-01-10T05:02:54;8.07;;;3.83;;
38715;SDS011;24833;49.324;8.694;2024-01-10T05:05:21;7.68;;;3.90;;
38715;SDS011;24833;49.324;8.694;2024-01-10T05:07:50;5.93;;;3.95;;
38715;SDS011;24833;49.324;8.694;2024-01-10T05:10:18;6.72;;;3.58;;
38715;SDS011;24833;49.324;8.694;2024-01-10T05:12:45;7.72;;;4.10;;
38715;SDS011;24833;49.324;8.694;2024-01-10T05:15:12;5.30;;;3.58;;
38715;SDS011;24833;49.324;8.694;2024-01-10T05:17:39;5.32;;;3.47;;
38715;SDS011;24833;49.324;8.694;2024-01-10T05:20:06;5.18;;;3.70;;
38715;SDS011;24833;49.324;8.694;2024-01-10T05:22:34;6.03;;;3.75;;
38715;SDS011;24833;49.324;8.694;2024-01-10T05:25:02;7.88;;;3.88;;
38715;SDS011;24833;49.324;8.694;2024-01-10T05:27:30;7.45;;;4.03;;
38715;SDS011;24833;49.324;8.694;2024-01-10T05:29:58;4.78;;;3.30;;
38715;SDS011;24833;49.324;8.694;2024-01-10T05:32:26;5.07;;;3.33;;
38715;SDS011;24833;49.324;8.694;2024-01-10T05:34:53;5.82;;;3.58;;
38715;SDS011;24833;49.324;8.694;2024-01-10T05:37:21;5.22;;;2.97;;
38715;SDS011;24833;49.324;8.694;2024-01-10T05:39:49;6.15;;;3.25;;
38715;SDS011;24833;49.324;8.694;2024-01-10T05:42:16;4.25;;;3.20;;
38715;SDS011;24833;49.324;8.694;2024-01-10T05:44:43;5.53;;;3.28;;
38715;SDS011;24833;49.324;8.694;2024-01-10T05:47:10;5.70;;;3.92;;
38715;SDS011;24833;49.324;8.694;2024-01-10T05:49:37;5.72;;;3.22;;
38715;SDS011;24833;49.324;8.694;2024-01-10T05:52:04;5.57;;;3.17;;
38715;SDS011;24833;49.324;8.694;2024-01-10T05:54:31;6.22;;;3.42;;
38715;SDS011;24833;49.324;8.694;2024-01-10T05:56:58;5.72;;;3.63;;
38715;SDS011;24833;49.324;8.694;2024-01-10T05:59:27;5.57;;;3.30;;
38715;SDS011;24833;49.324;8.694;2024-01-10T06:01:55;5.18;;;3.50;;
38715;SDS011;24833;49.324;8.694;2024-01-10T06:04:25;5.60;;;3.17;;
38715;SDS011;24833;49.324;8.694;2024-01-10T06:06:54;5.95;;;3.10;;
38715;SDS011;24833;49.324;8.694;2024-01-10T06:09:21;5.07;;;3.13;;
38715;SDS011;24833;49.324;8.694;2024-01-10T06:11:48;6.47;;;3.60;;
38715;SDS011;24833;49.324;8.694;2024-01-10T06:14:15;5.78;;;3.10;;
38715;SDS011;24833;49.324;8.694;2024-01-10T06:16:43;5.43;;;3.67;;
38715;SDS011;24833;49.324;8.694;2024-01-10T06:19:13;6.25;;;3.42;;
38715;SDS011;24833;49.324;8.694;2024-01-10T06:21:41;4.72;;;3.00;;
38715;SDS011;24833;49.324;8.694;2024-01-10T06:24:08;5.30;;;3.45;;
38715;SDS011;24833;49.324;8.694;2024-01-10T06:26:35;6.20;;;3.47;;
38715;SDS011;24833;49.324;8.694;2024-01-10T06:29:02;8.32;;;3.88;;
38715;SDS011;24833;49.324;8.694;2024-01-10T06:31:29;5.82;;;3.70;;
38715;SDS011;24833;49.324;8.694;2024-01-10T06:33:56;8.20;;;3.75;;
38715;SDS011;24833;49.324;8.694;2024-01-10T06:36:23;4.93;;;2.97;;
38715;SDS011;24833;49.324;8.694;2024-01-10T06:38:50;4.45;;;2.92;;
38715;SDS011;24833;49.324;8.694;2024-01-10T06:41:18;5.65;;;3.05;;
38715;SDS011;24833;49.324;8.694;2024-01-10T06:43:51;4.13;;;2.83;;
38715;SDS011;24833;49.324;8.694;2024-01-10T06:46:19;5.45;;;3.42;;
38715;SDS011;24833;49.324;8.694;2024-01-10T06:48:46;6.43;;;3.75;;
38715;SDS011;24833;49.324;8.694;2024-01-10T06:51:14;4.32;;;2.90;;
38715;SDS011;24833;49.324;8.694;2024-01-10T06:53:42;5.05;;;3.05;;
38715;SDS011;24833;49.324;8.694;2024-01-10T06:56:09;4.53;;;2.75;;
38715;SDS011;24833;49.324;8.694;2024-01-10T06:58:37;4.10;;;2.80;;
38715;SDS011;24833;49.324;8.694;2024-01-10T07:01:10;8.25;;;4.03;;
38715;SDS011;24833;49.324;8.694;2024-01-10T07:03:41;5.72;;;3.22;;
38715;SDS011;24833;49.324;8.694;2024-01-10T07:06:09;4.43;;;2.90;;
38715;SDS011;24833;49.324;8.694;2024-01-10T07:08:36;5.32;;;3.38;;
38715;SDS011;24833;49.324;8.694;2024-01-10T07:11:04;5.18;;;3.17;;
38715;SDS011;24833;49.324;8.694;2024-01-10T07:13:31;7.05;;;3.55;;
38715;SDS011;24833;49.324;8.694;2024-01-10T07:15:58;6.63;;;3.63;;
38715;SDS011;24833;49.324;8.694;2024-01-10T07:18:28;4.90;;;2.63;;
38715;SDS011;24833;49.324;8.694;2024-01-10T07:20:56;4.65;;;3.20;;
38715;SDS011;24833;49.324;8.694;2024-01-10T07:23:23;4.60;;;2.72;;
38715;SDS011;24833;49.324;8.694;2024-01-10T07:25:50;4.63;;;2.92;;
38715;SDS011;24833;49.324;8.694;2024-01-10T07:28:17;5.07;;;3.22;;
38715;SDS011;24833;49.324;8.694;2024-01-10T07:30:46;6.53;;;3.35;;
38715;SDS011;24833;49.324;8.694;2024-01-10T07:33:13;4.88;;;3.17;;
38715;SDS011;24833;49.324;8.694;2024-01-10T07:35:42;5.80;;;3.22;;
38715;SDS011;24833;49.324;8.694;2024-01-10T07:38:09;4.63;;;2.83;;
38715;SDS011;24833;49.324;8.694;2024-01-10T07:40:36;4.78;;;2.95;;
38715;SDS011;24833;49.324;8.694;2024-01-10T07:43:04;6.82;;;3.22;;
38715;SDS011;24833;49.324;8.694;2024-01-10T07:45:31;5.85;;;2.95;;
38715;SDS011;24833;49.324;8.694;2024-01-10T07:47:58;5.22;;;3.25;;
38715;SDS011;24833;49.324;8.694;2024-01-10T07:50:26;6.40;;;2.75;;
38715;SDS011;24833;49.324;8.694;2024-01-10T07:52:55;5.10;;;3.72;;
38715;SDS011;24833;49.324;8.694;2024-01-10T07:55:22;4.72;;;3.20;;
38715;SDS011;24833;49.324;8.694;2024-01-10T07:57:49;7.18;;;3.42;;
38715;SDS011;24833;49.324;8.694;2024-01-10T08:00:16;7.55;;;3.50;;
38715;SDS011;24833;49.324;8.694;2024-01-10T08:02:46;5.95;;;3.35;;
38715;SDS011;24833;49.324;8.694;2024-01-10T08:05:15;6.05;;;3.40;;
38715;SDS011;24833;49.324;8.694;2024-01-10T08:07:42;5.75;;;3.40;;
38715;SDS011;24833;49.324;8.694;2024-01-10T08:10:09;5.85;;;3.38;;
38715;SDS011;24833;49.324;8.694;2024-01-10T08:12:37;5.82;;;3.03;;
38715;SDS011;24833;49.324;8.694;2024-01-10T08:15:08;3.90;;;3.05;;
38715;SDS011;24833;49.324;8.694;2024-01-10T08:17:35;7.82;;;3.45;;
38715;SDS011;24833;49.324;8.694;2024-01-10T08:20:05;5.55;;;3.40;;
38715;SDS011;24833;49.324;8.694;2024-01-10T08:22:34;7.45;;;4.15;;
38715;SDS011;24833;49.324;8.694;2024-01-10T08:25:01;6.57;;;3.75;;
38715;SDS011;24833;49.324;8.694;2024-01-10T08:27:29;7.68;;;3.83;;
38715;SDS011;24833;49.324;8.694;2024-01-10T08:29:56;7.80;;;3.58;;
38715;SDS011;24833;49.324;8.694;2024-01-10T08:32:23;4.28;;;3.30;;
38715;SDS011;24833;49.324;8.694;2024-01-10T08:34:50;5.65;;;3.40;;
38715;SDS011;24833;49.324;8.694;2024-01-10T08:37:17;5.40;;;3.58;;
38715;SDS011;24833;49.324;8.694;2024-01-10T08:39:44;7.03;;;4.25;;
38715;SDS011;24833;49.324;8.694;2024-01-10T08:42:11;6.28;;;3.60;;
38715;SDS011;24833;49.324;8.694;2024-01-10T08:44:38;5.43;;;3.53;;
38715;SDS011;24833;49.324;8.694;2024-01-10T08:47:05;6.00;;;4.32;;
38715;SDS011;24833;49.324;8.694;2024-01-10T08:49:33;7.97;;;4.30;;
38715;SDS011;24833;49.324;8.694;2024-01-10T08:52:00;7.95;;;4.43;;
38715;SDS011;24833;49.324;8.694;2024-01-10T08:54:27;7.47;;;3.97;;
38715;SDS011;24833;49.324;8.694;2024-01-10T08:56:55;7.68;;;4.15;;
38715;SDS011;24833;49.324;8.694;2024-01-10T08:59:22;7.45;;;4.18;;
38715;SDS011;24833;49.324;8.694;2024-01-10T09:01:50;7.93;;;4.53;;
38715;SDS011;24833;49.324;8.694;2024-01-10T09:04:18;7.53;;;4.60;;
38715;SDS011;24833;49.324;8.694;2024-01-10T09:06:46;6.38;;;3.75;;
38715;SDS011;24833;49.324;8.694;2024-01-10T09:09:13;7.88;;;4.32;;
38715;SDS011;24833;49.324;8.694;2024-01-10T09:11:40;8.68;;;4.25;;
38715;SDS011;24833;49.324;8.694;2024-01-10T09:14:11;7.90;;;4.70;;
38715;SDS011;24833;49.324;8.694;2024-01-10T09:16:38;10.15;;;3.95;;
38715;SDS011;24833;49.324;8.694;2024-01-10T09:19:05;8.75;;;4.80;;
38715;SDS011;24833;49.324;8.694;2024-01-10T09:21:37;8.57;;;4.45;;
38715;SDS011;24833;49.324;8.694;2024-01-10T09:24:04;8.95;;;5.43;;
38715;SDS011;24833;49.324;8.694;2024-01-10T09:26:51;7.35;;;4.57;;
38715;SDS011;24833;49.324;8.694;2024-01-10T09:29:20;6.97;;;4.28;;
38715;SDS011;24833;49.324;8.694;2024-01-10T09:31:47;8.68;;;4.72;;
38715;SDS011;24833;49.324;8.694;2024-01-10T09:34:15;8.32;;;5.03;;
38715;SDS011;24833;49.324;8.694;2024-01-10T09:36:43;9.65;;;5.10;;
38715;SDS011;24833;49.324;8.694;2024-01-10T09:39:10;9.98;;;5.53;;
38715;SDS011;24833;49.324;8.694;2024-01-10T09:41:47;7.28;;;4.57;;
38715;SDS011;24833;49.324;8.694;2024-01-10T09:44:17;9.10;;;5.45;;
38715;SDS011;24833;49.324;8.694;2024-01-10T09:46:48;9.48;;;5.47;;
38715;SDS011;24833;49.324;8.694;2024-01-10T09:49:19;8.35;;;5.10;;
38715;SDS011;24833;49.324;8.694;2024-01-10T09:51:49;8.00;;;5.00;;
38715;SDS011;24833;49.324;8.694;2024-01-10T09:54:16;10.32;;;5.35;;
38715;SDS011;24833;49.324;8.694;2024-01-10T09:56:47;8.32;;;5.30;;
38715;SDS011;24833;49.324;8.694;2024-01-10T09:59:14;10.55;;;5.60;;
38715;SDS011;24833;49.324;8.694;2024-01-10T10:01:42;8.27;;;6.15;;
38715;SDS011;24833;49.324;8.694;2024-01-10T10:04:11;9.82;;;6.25;;
38715;SDS011;24833;49.324;8.694;2024-01-10T10:06:39;12.35;;;6.70;;
38715;SDS011;24833;49.324;8.694;2024-01-10T10:09:07;10.35;;;6.88;;
38715;SDS011;24833;49.324;8.694;2024-01-10T10:11:36;12.18;;;6.25;;
38715;SDS011;24833;49.324;8.694;2024-01-10T10:14:16;9.38;;;5.55;;
38715;SDS011;24833;49.324;8.694;2024-01-10T10:16:45;10.32;;;5.93;;
38715;SDS011;24833;49.324;8.694;2024-01-10T10:19:12;11.48;;;6.57;;
38715;SDS011;24833;49.324;8.694;2024-01-10T10:22:07;10.38;;;5.90;;
38715;SDS011;24833;49.324;8.694;2024-01-10T10:24:35;10.55;;;6.30;;
38715;SDS011;24833;49.324;8.694;2024-01-10T10:27:10;10.23;;;7.22;;
38715;SDS011;24833;49.324;8.694;2024-01-10T10:29:39;10.02;;;6.10;;
38715;SDS011;24833;49.324;8.694;2024-01-10T10:32:06;9.00;;;5.88;;
38715;SDS011;24833;49.324;8.694;2024-01-10T10:34:35;9.57;;;5.43;;
38715;SDS011;24833;49.324;8.694;2024-01-10T10:37:02;8.18;;;5.80;;
38715;SDS011;24833;49.324;8.694;2024-01-10T10:39:30;10.25;;;5.65;;
38715;SDS011;24833;49.324;8.694;2024-01-10T10:41:57;9.60;;;5.57;;
38715;SDS011;24833;49.324;8.694;2024-01-10T10:44:25;9.93;;;5.85;;
38715;SDS011;24833;49.324;8.694;2024-01-10T10:46:55;9.30;;;6.43;;
38715;SDS011;24833;49.324;8.694;2024-01-10T10:49:40;9.65;;;6.22;;
38715;SDS011;24833;49.324;8.694;2024-01-10T10:52:16;11.00;;;6.90;;
38715;SDS011;24833;49.324;8.694;2024-01-10T10:54:46;11.02;;;6.75;;
38715;SDS011;24833;49.324;8.694;2024-01-10T10:57:14;10.65;;;7.15;;
38715;SDS011;24833;49.324;8.694;2024-01-10T10:59:44;10.85;;;6.97;;
38715;SDS011;24833;49.324;8.694;2024-01-10T11:02:12;12.30;;;7.07;;
38715;SDS011;24833;49.324;8.694;2024-01-10T11:04:48;10.00;;;5.82;;
38715;SDS011;24833;49.324;8.694;2024-01-10T11:07:15;9.43;;;5.68;;
38715;SDS011;24833;49.324;8.694;2024-01-10T11:09:43;8.18;;;5.22;;
38715;SDS011;24833;49.324;8.694;2024-01-10T11:12:18;11.88;;;6.28;;
38715;SDS011;24833;49.324;8.694;2024-01-10T11:22:24;9.07;;;6.75;;
38715;SDS011;24833;49.324;8.694;2024-01-10T11:25:03;10.68;;;6.60;;
38715;SDS011;24833;49.324;8.694;2024-01-10T11:27:31;10.63;;;7.10;;
38715;SDS011;24833;49.324;8.694;2024-01-10T11:29:58;10.50;;;6.90;;
38715;SDS011;24833;49.324;8.694;2024-01-10T11:32:27;10.15;;;6.85;;
38715;SDS011;24833;49.324;8.694;2024-01-10T11:34:57;10.95;;;6.43;;
38715;SDS011;24833;49.324;8.694;2024-01-10T11:37:31;10.43;;;7.30;;
38715;SDS011;24833;49.324;8.694;2024-01-10T11:40:08;10.48;;;6.93;;
38715;SDS011;24833;49.324;8.694;2024-01-10T11:42:43;10.07;;;6.20;;
38715;SDS011;24833;49.324;8.694;2024-01-10T11:47:57;8.48;;;5.82;;
38715;SDS011;24833;49.324;8.694;2024-01-10T11:50:25;7.53;;;5.15;;
38715;SDS011;24833;49.324;8.694;2024-01-10T11:52:53;11.32;;;6.05;;
38715;SDS011;24833;49.324;8.694;2024-01-10T11:58:18;8.27;;;5.10;;
38715;SDS011;24833;49.324;8.694;2024-01-10T12:00:46;7.95;;;5.25;;
38715;SDS011;24833;49.324;8.694;2024-01-10T12:03:14;8.25;;;5.18;;
38715;SDS011;24833;49.324;8.694;2024-01-10T12:05:42;8.95;;;6.15;;
38715;SDS011;24833;49.324;8.694;2024-01-10T12:08:10;8.75;;;6.07;;
38715;SDS011;24833;49.324;8.694;2024-01-10T12:10:45;7.50;;;5.97;;
38715;SDS011;24833;49.324;8.694;2024-01-10T12:13:13;10.25;;;6.32;;
38715;SDS011;24833;49.324;8.694;2024-01-10T12:15:41;8.88;;;5.65;;
38715;SDS011;24833;49.324;8.694;2024-01-10T12:18:08;9.70;;;6.63;;
38715;SDS011;24833;49.324;8.694;2024-01-10T12:20:35;10.27;;;6.35;;
38715;SDS011;24833;49.324;8.694;2024-01-10T12:23:02;8.27;;;6.13;;
38715;SDS011;24833;49.324;8.694;2024-01-10T12:25:29;7.10;;;5.55;;
38715;SDS011;24833;49.324;8.694;2024-01-10T12:28:01;8.68;;;6.05;;
38715;SDS011;24833;49.324;8.694;2024-01-10T12:30:29;6.95;;;5.13;;
38715;SDS011;24833;49.324;8.694;2024-01-10T12:33:00;7.40;;;5.13;;
38715;SDS011;24833;49.324;8.694;2024-01-10T12:35:35;7.95;;;5.35;;
38715;SDS011;24833;49.324;8.694;2024-01-10T12:38:04;8.35;;;5.05;;
38715;SDS011;24833;49.324;8.694;2024-01-10T12:40:31;7.47;;;4.47;;
38715;SDS011;24833;49.324;8.694;2024-01-10T12:43:05;7.72;;;6.13;;
38715;SDS011;24833;49.324;8.694;2024-01-10T12:45:32;7.70;;;5.72;;
38715;SDS011;24833;49.324;8.694;2024-01-10T12:47:59;10.93;;;6.95;;
38715;SDS011;24833;49.324;8.694;2024-01-10T12:50:29;10.93;;;6.95;;
38715;SDS011;24833;49.324;8.694;2024-01-10T12:52:56;14.90;;;7.70;;
38715;SDS011;24833;49.324;8.694;2024-01-10T12:55:26;12.43;;;7.82;;
38715;SDS011;24833;49.324;8.694;2024-01-10T12:57:54;13.07;;;7.60;;
38715;SDS011;24833;49.324;8.694;2024-01-10T13:00:28;9.75;;;6.80;;
38715;SDS011;24833;49.324;8.694;2024-01-10T13:02:55;14.07;;;7.90;;
38715;SDS011;24833;49.324;8.694;2024-01-10T13:05:22;9.95;;;7.72;;
38715;SDS011;24833;49.324;8.694;2024-01-10T13:07:50;10.93;;;7.57;;
38715;SDS011;24833;49.324;8.694;2024-01-10T13:10:18;12.63;;;8.45;;
38715;SDS011;24833;49.324;8.694;2024-01-10T13:12:45;12.73;;;8.70;;
38715;SDS011;24833;49.324;8.694;2024-01-10T13:15:13;11.32;;;7.82;;
38715;SDS011;24833;49.324;8.694;2024-01-10T13:17:41;11.10;;;7.40;;
38715;SDS011;24833;49.324;8.694;2024-01-10T13:20:08;14.00;;;7.85;;
38715;SDS011;24833;49.324;8.694;2024-01-10T13:22:36;11.13;;;7.45;;
38715;SDS011;24833;49.324;8.694;2024-01-10T13:25:04;9.73;;;7.10;;
38715;SDS011;24833;49.324;8.694;2024-01-10T13:27:31;8.77;;;7.20;;
38715;SDS011;24833;49.324;8.694;2024-01-10T13:29:58;10.75;;;7.30;;
38715;SDS011;24833;49.324;8.694;2024-01-10T13:32:25;11.23;;;7.85;;
38715;SDS011;24833;49.324;8.694;2024-01-10T13:34:52;14.05;;;8.38;;
38715;SDS011;24833;49.324;8.694;2024-01-10T13:37:20;12.35;;;8.63;;
38715;SDS011;24833;49.324;8.694;2024-01-10T13:39:47;13.35;;;8.98;;
38715;SDS011;24833;49.324;8.694;2024-01-10T13:42:14;13.25;;;7.88;;
38715;SDS011;24833;49.324;8.694;2024-01-10T13:44:42;9.95;;;7.32;;
38715;SDS011;24833;49.324;8.694;2024-01-10T13:47:09;10.30;;;7.60;;
38715;SDS011;24833;49.324;8.694;2024-01-10T13:49:36;13.07;;;7.75;;
38715;SDS011;24833;49.324;8.694;2024-01-10T13:52:03;12.52;;;7.93;;
38715;SDS011;24833;49.324;8.694;2024-01-10T13:54:30;10.50;;;7.60;;
38715;SDS011;24833;49.324;8.694;2024-01-10T13:56:57;12.57;;;8.02;;
38715;SDS011;24833;49.324;8.694;2024-01-10T13:59:24;9.43;;;7.50;;
38715;SDS011;24833;49.324;8.694;2024-01-10T14:01:52;11.32;;;7.93;;
38715;SDS011;24833;49.324;8.694;2024-01-10T14:04:19;13.75;;;8.10;;
38715;SDS011;24833;49.324;8.694;2024-01-10T14:06:46;10.13;;;7.43;;
38715;SDS011;24833;49.324;8.694;2024-01-10T14:09:13;11.98;;;7.53;;
38715;SDS011;24833;49.324;8.694;2024-01-10T14:11:40;10.60;;;7.50;;
38715;SDS011;24833;49.324;8.694;2024-01-10T14:14:07;11.85;;;7.50;;
38715;SDS011;24833;49.324;8.694;2024-01-10T14:16:34;10.93;;;7.72;;
38715;SDS011;24833;49.324;8.694;2024-01-10T14:19:02;10.82;;;7.75;;
38715;SDS011;24833;49.324;8.694;2024-01-10T14:21:29;10.23;;;7.40;;
38715;SDS011;24833;49.324;8.694;2024-01-10T14:23:58;10.93;;;8.07;;
38715;SDS011;24833;49.324;8.694;2024-01-10T14:26:25;10.77;;;7.43;;
38715;SDS011;24833;49.324;8.694;2024-01-10T14:28:52;11.38;;;7.10;;
38715;SDS011;24833;49.324;8.694;2024-01-10T14:31:22;9.18;;;7.15;;
38715;SDS011;24833;49.324;8.694;2024-01-10T14:34:03;9.63;;;6.97;;
38715;SDS011;24833;49.324;8.694;2024-01-10T14:36:37;7.97;;;6.43;;
38715;SDS011;24833;49.324;8.694;2024-01-10T14:39:04;10.30;;;6.47;;
38715;SDS011;24833;49.324;8.694;2024-01-10T14:41:33;8.77;;;6.47;;
38715;SDS011;24833;49.324;8.694;2024-01-10T14:44:00;8.75;;;6.00;;
38715;SDS011;24833;49.324;8.694;2024-01-10T14:46:30;10.13;;;6.53;;
38715;SDS011;24833;49.324;8.694;2024-01-10T14:48:57;10.30;;;7.07;;
38715;SDS011;24833;49.324;8.694;2024-01-10T14:51:24;10.65;;;7.18;;
38715;SDS011;24833;49.324;8.694;2024-01-10T14:53:51;11.85;;;7.75;;
38715;SDS011;24833;49.324;8.694;2024-01-10T14:56:18;10.63;;;7.68;;
38715;SDS011;24833;49.324;8.694;2024-01-10T14:58:45;10.40;;;7.60;;
38715;SDS011;24833;49.324;8.694;2024-01-10T15:01:12;12.35;;;7.53;;
38715;SDS011;24833;49.324;8.694;2024-01-10T15:03:40;10.95;;;7.00;;